sensor_id;sensor_type;location;lat;lon;timestamp;temperature;humidity
67165;SHT31;54093;50.014;19.984;2022-11-20T00:07:43;-3.79;83.86
67165;SHT31;54093;50.014;19.984;2022-11-20T00:17:04;-3.86;82.50
67165;SHT31;54093;50.014;19.984;2022-11-20T00:26:26;-3.92;82.61
67165;SHT31;54093;50.014;19.984;2022-11-20T00:35:47;-3.92;82.54
67165;SHT31;54093;50.014;19.984;2022-11-20T00:45:08;-4.02;82.65
67165;SHT31;54093;50.014;19.984;2022-11-20T00:54:29;-4.17;82.21
67165;SHT31;54093;50.014;19.984;2022-11-20T01:03:52;-4.20;82.80
67165;SHT31;54093;50.014;19.984;2022-11-20T01:13:13;-4.09;84.13
67165;SHT31;54093;50.014;19.984;2022-11-20T01:22:52;-4.13;83.99
67165;SHT31;54093;50.014;19.984;2022-11-20T01:32:13;-4.11;84.59
67165;SHT31;54093;50.014;19.984;2022-11-20T01:41:34;-4.14;83.38
67165;SHT31;54093;50.014;19.984;2022-11-20T01:51:21;-4.23;83.04
67165;SHT31;54093;50.014;19.984;2022-11-20T02:00:44;-4.28;82.93
67165;SHT31;54093;50.014;19.984;2022-11-20T02:10:05;-4.37;82.12
67165;SHT31;54093;50.014;19.984;2022-11-20T02:19:28;-4.60;81.94
67165;SHT31;54093;50.014;19.984;2022-11-20T02:28:50;-4.60;82.67
67165;SHT31;54093;50.014;19.984;2022-11-20T02:38:11;-4.64;81.81
67165;SHT31;54093;50.014;19.984;2022-11-20T02:47:33;-4.68;81.53
67165;SHT31;54093;50.014;19.984;2022-11-20T02:56:54;-4.76;81.95
67165;SHT31;54093;50.014;19.984;2022-11-20T03:06:16;-4.73;82.84
67165;SHT31;54093;50.014;19.984;2022-11-20T03:15:37;-4.85;81.37
67165;SHT31;54093;50.014;19.984;2022-11-20T03:24:58;-4.86;82.08
67165;SHT31;54093;50.014;19.984;2022-11-20T03:34:18;-4.90;82.78
67165;SHT31;54093;50.014;19.984;2022-11-20T03:43:39;-4.86;81.85
67165;SHT31;54093;50.014;19.984;2022-11-20T03:53:00;-5.11;81.47
67165;SHT31;54093;50.014;19.984;2022-11-20T04:02:21;-5.23;81.67
67165;SHT31;54093;50.014;19.984;2022-11-20T04:11:42;-5.31;81.61
67165;SHT31;54093;50.014;19.984;2022-11-20T04:21:04;-5.35;82.54
67165;SHT31;54093;50.014;19.984;2022-11-20T04:30:25;-5.31;82.23
67165;SHT31;54093;50.014;19.984;2022-11-20T04:39:46;-5.20;83.07
67165;SHT31;54093;50.014;19.984;2022-11-20T04:49:07;-5.17;82.02
67165;SHT31;54093;50.014;19.984;2022-11-20T04:58:28;-5.23;81.67
67165;SHT31;54093;50.014;19.984;2022-11-20T05:07:49;-5.32;81.07
67165;SHT31;54093;50.014;19.984;2022-11-20T05:17:11;-5.41;82.75
67165;SHT31;54093;50.014;19.984;2022-11-20T05:26:32;-5.34;82.36
67165;SHT31;54093;50.014;19.984;2022-11-20T05:35:57;-5.50;81.67
67165;SHT31;54093;50.014;19.984;2022-11-20T05:45:18;-5.55;82.20
67165;SHT31;54093;50.014;19.984;2022-11-20T05:54:39;-5.47;83.36
67165;SHT31;54093;50.014;19.984;2022-11-20T06:04:00;-5.42;82.21
67165;SHT31;54093;50.014;19.984;2022-11-20T06:13:21;-5.41;82.25
67165;SHT31;54093;50.014;19.984;2022-11-20T06:22:41;-5.37;83.56
67165;SHT31;54093;50.014;19.984;2022-11-20T06:32:02;-5.20;85.31
67165;SHT31;54093;50.014;19.984;2022-11-20T06:41:23;-5.00;86.25
67165;SHT31;54093;50.014;19.984;2022-11-20T06:50:45;-4.83;86.80
67165;SHT31;54093;50.014;19.984;2022-11-20T07:00:07;-4.65;87.63
67165;SHT31;54093;50.014;19.984;2022-11-20T07:09:28;-4.51;88.25
67165;SHT31;54093;50.014;19.984;2022-11-20T07:18:48;-4.41;88.27
67165;SHT31;54093;50.014;19.984;2022-11-20T07:28:09;-4.57;88.01
67165;SHT31;54093;50.014;19.984;2022-11-20T07:37:34;-4.37;88.92
67165;SHT31;54093;50.014;19.984;2022-11-20T07:46:54;-4.28;87.93
67165;SHT31;54093;50.014;19.984;2022-11-20T07:56:15;-4.30;88.21
67165;SHT31;54093;50.014;19.984;2022-11-20T08:05:36;-4.18;88.91
67165;SHT31;54093;50.014;19.984;2022-11-20T08:14:57;-4.06;88.45
67165;SHT31;54093;50.014;19.984;2022-11-20T08:24:19;-3.96;88.15
67165;SHT31;54093;50.014;19.984;2022-11-20T08:33:40;-3.99;87.70
67165;SHT31;54093;50.014;19.984;2022-11-20T08:43:01;-3.81;88.76
67165;SHT31;54093;50.014;19.984;2022-11-20T08:52:21;-3.71;88.78
67165;SHT31;54093;50.014;19.984;2022-11-20T09:01:42;-3.58;88.38
67165;SHT31;54093;50.014;19.984;2022-11-20T09:11:03;-3.45;88.55
67165;SHT31;54093;50.014;19.984;2022-11-20T09:20:26;-3.35;88.64
67165;SHT31;54093;50.014;19.984;2022-11-20T09:29:47;-3.28;88.66
67165;SHT31;54093;50.014;19.984;2022-11-20T09:39:08;-3.17;88.67
67165;SHT31;54093;50.014;19.984;2022-11-20T09:58:42;-2.92;88.98
67165;SHT31;54093;50.014;19.984;2022-11-20T10:08:34;-2.80;88.63
67165;SHT31;54093;50.014;19.984;2022-11-20T10:18:24;-2.72;88.52
67165;SHT31;54093;50.014;19.984;2022-11-20T10:28:09;-2.59;88.53
67165;SHT31;54093;50.014;19.984;2022-11-20T10:37:32;-2.55;88.55
67165;SHT31;54093;50.014;19.984;2022-11-20T10:46:54;-2.45;88.81
67165;SHT31;54093;50.014;19.984;2022-11-20T11:05:53;-2.25;89.14
67165;SHT31;54093;50.014;19.984;2022-11-20T11:15:29;-2.11;89.24
67165;SHT31;54093;50.014;19.984;2022-11-20T11:24:53;-1.97;89.30
67165;SHT31;54093;50.014;19.984;2022-11-20T11:34:15;-1.89;88.79
67165;SHT31;54093;50.014;19.984;2022-11-20T11:43:37;-1.79;89.13
67165;SHT31;54093;50.014;19.984;2022-11-20T11:53:31;-1.70;88.80
67165;SHT31;54093;50.014;19.984;2022-11-20T12:03:13;-1.60;88.94
67165;SHT31;54093;50.014;19.984;2022-11-20T12:12:43;-1.48;89.29
67165;SHT31;54093;50.014;19.984;2022-11-20T12:22:53;-1.41;88.74
67165;SHT31;54093;50.014;19.984;2022-11-20T12:51:48;-1.22;88.81
67165;SHT31;54093;50.014;19.984;2022-11-20T13:01:31;-1.15;89.15
67165;SHT31;54093;50.014;19.984;2022-11-20T13:11:24;-1.09;89.58
67165;SHT31;54093;50.014;19.984;2022-11-20T13:20:46;-1.04;89.66
67165;SHT31;54093;50.014;19.984;2022-11-20T13:30:12;-0.98;89.64
67165;SHT31;54093;50.014;19.984;2022-11-20T13:39:36;-0.87;89.63
67165;SHT31;54093;50.014;19.984;2022-11-20T13:48:57;-0.84;88.76
67165;SHT31;54093;50.014;19.984;2022-11-20T14:08:06;-0.98;88.22
67165;SHT31;54093;50.014;19.984;2022-11-20T14:17:35;-1.00;88.17
67165;SHT31;54093;50.014;19.984;2022-11-20T14:26:55;-1.04;88.12
67165;SHT31;54093;50.014;19.984;2022-11-20T14:36:22;-1.09;87.70
67165;SHT31;54093;50.014;19.984;2022-11-20T14:45:49;-1.18;87.74
67165;SHT31;54093;50.014;19.984;2022-11-20T14:55:13;-1.24;87.53
67165;SHT31;54093;50.014;19.984;2022-11-20T15:04:47;-1.31;87.52
67165;SHT31;54093;50.014;19.984;2022-11-20T15:14:09;-1.41;87.55
67165;SHT31;54093;50.014;19.984;2022-11-20T15:23:30;-1.48;87.39
67165;SHT31;54093;50.014;19.984;2022-11-20T15:32:51;-1.45;87.67
67165;SHT31;54093;50.014;19.984;2022-11-20T15:42:11;-1.48;87.98
67165;SHT31;54093;50.014;19.984;2022-11-20T15:51:33;-1.51;88.00
67165;SHT31;54093;50.014;19.984;2022-11-20T16:00:54;-1.46;88.25
67165;SHT31;54093;50.014;19.984;2022-11-20T16:10:15;-1.46;88.31
67165;SHT31;54093;50.014;19.984;2022-11-20T16:19:36;-1.44;88.60
67165;SHT31;54093;50.014;19.984;2022-11-20T16:29:02;-1.39;88.65
67165;SHT31;54093;50.014;19.984;2022-11-20T16:38:23;-1.37;88.81
67165;SHT31;54093;50.014;19.984;2022-11-20T16:47:44;-1.32;88.93
67165;SHT31;54093;50.014;19.984;2022-11-20T16:57:05;-1.37;88.97
67165;SHT31;54093;50.014;19.984;2022-11-20T17:06:29;-1.31;89.23
67165;SHT31;54093;50.014;19.984;2022-11-20T17:15:50;-1.22;89.11
67165;SHT31;54093;50.014;19.984;2022-11-20T17:25:11;-1.24;89.03
67165;SHT31;54093;50.014;19.984;2022-11-20T17:34:32;-1.22;89.03
67165;SHT31;54093;50.014;19.984;2022-11-20T17:43:57;-1.21;88.84
67165;SHT31;54093;50.014;19.984;2022-11-20T17:53:18;-1.25;88.80
67165;SHT31;54093;50.014;19.984;2022-11-20T18:02:40;-1.34;88.95
67165;SHT31;54093;50.014;19.984;2022-11-20T18:12:01;-1.27;89.36
67165;SHT31;54093;50.014;19.984;2022-11-20T18:21:23;-1.31;89.29
67165;SHT31;54093;50.014;19.984;2022-11-20T18:30:45;-1.46;89.06
67165;SHT31;54093;50.014;19.984;2022-11-20T18:40:06;-1.49;89.00
67165;SHT31;54093;50.014;19.984;2022-11-20T18:49:27;-1.49;88.64
67165;SHT31;54093;50.014;19.984;2022-11-20T18:58:48;-1.59;88.54
67165;SHT31;54093;50.014;19.984;2022-11-20T19:08:08;-1.58;88.26
67165;SHT31;54093;50.014;19.984;2022-11-20T19:17:31;-1.69;87.44
67165;SHT31;54093;50.014;19.984;2022-11-20T19:26:53;-1.77;87.01
67165;SHT31;54093;50.014;19.984;2022-11-20T19:36:16;-1.86;86.88
67165;SHT31;54093;50.014;19.984;2022-11-20T19:45:37;-1.98;86.71
67165;SHT31;54093;50.014;19.984;2022-11-20T19:54:58;-2.03;86.89
67165;SHT31;54093;50.014;19.984;2022-11-20T20:04:19;-2.21;86.30
67165;SHT31;54093;50.014;19.984;2022-11-20T20:13:40;-2.31;86.07
67165;SHT31;54093;50.014;19.984;2022-11-20T20:23:01;-2.37;86.43
67165;SHT31;54093;50.014;19.984;2022-11-20T20:32:26;-2.45;87.29
67165;SHT31;54093;50.014;19.984;2022-11-20T20:41:47;-2.35;87.33
67165;SHT31;54093;50.014;19.984;2022-11-20T20:51:08;-2.27;87.31
67165;SHT31;54093;50.014;19.984;2022-11-20T21:00:29;-2.17;87.95
67165;SHT31;54093;50.014;19.984;2022-11-20T21:09:50;-2.21;88.60
67165;SHT31;54093;50.014;19.984;2022-11-20T21:19:11;-2.04;88.70
67165;SHT31;54093;50.014;19.984;2022-11-20T21:28:33;-2.10;88.50
67165;SHT31;54093;50.014;19.984;2022-11-20T21:37:54;-2.07;88.70
67165;SHT31;54093;50.014;19.984;2022-11-20T21:47:15;-1.97;89.15
67165;SHT31;54093;50.014;19.984;2022-11-20T21:56:36;-1.85;89.36
67165;SHT31;54093;50.014;19.984;2022-11-20T22:05:58;-1.86;89.48
67165;SHT31;54093;50.014;19.984;2022-11-20T22:15:19;-1.80;89.93
67165;SHT31;54093;50.014;19.984;2022-11-20T22:24:39;-1.77;90.01
67165;SHT31;54093;50.014;19.984;2022-11-20T22:34:00;-1.63;90.11
67165;SHT31;54093;50.014;19.984;2022-11-20T22:43:21;-1.65;89.94
67165;SHT31;54093;50.014;19.984;2022-11-20T22:52:42;-1.62;90.02
67165;SHT31;54093;50.014;19.984;2022-11-20T23:02:03;-1.60;90.50
67165;SHT31;54093;50.014;19.984;2022-11-20T23:11:26;-1.49;90.43
67165;SHT31;54093;50.014;19.984;2022-11-20T23:20:47;-1.45;90.66
67165;SHT31;54093;50.014;19.984;2022-11-20T23:30:08;-1.41;90.45
67165;SHT31;54093;50.014;19.984;2022-11-20T23:39:29;-1.44;90.67
67165;SHT31;54093;50.014;19.984;2022-11-20T23:48:50;-1.42;90.49
67165;SHT31;54093;50.014;19.984;2022-11-20T23:58:11;-1.45;90.12
